Time;durP1;ratioP1;P1;durP2;ratioP2;P2;SDS_P1;SDS_P2;PMS_P1;PMS_P2;Temp;Humidity;BMP_temperature;BMP_pressure;BME280_temperature;BME280_humidity;BME280_pressure;Samples;Min_cycle;Max_cycle;Signal;HPM_P1;HPM_P2
2022/06/24 00:00:49;;;;;;;;;;;;;;;14.51;100.00;101312.59;5058767;28;19967;-78
2022/06/24 00:03:18;;;;;;;;;;;;;;;14.49;100.00;101309.22;5059010;28;19912;-79
2022/06/24 00:05:45;;;;;;;;;;;;;;;14.47;100.00;101308.63;5073043;28;19924;-79
2022/06/24 00:08:11;;;;;;;;;;;;;;;14.46;100.00;101308.81;5055885;28;19909;-80
2022/06/24 00:10:36;;;;;;;;;;;;;;;14.45;100.00;101304.44;5056665;28;20050;-78
2022/06/24 00:13:03;;;;;;;;;;;;;;;14.43;100.00;101307.34;5071242;28;20423;-79
2022/06/24 00:15:29;;;;;;;;;;;;;;;14.41;100.00;101311.34;5047771;28;19912;-79
2022/06/24 00:17:55;;;;;;;;;;;;;;;14.37;100.00;101308.22;5048407;28;20353;-79
2022/06/24 00:20:21;;;;;;;;;;;;;;;14.32;100.00;101303.44;5077288;28;19913;-78
2022/06/24 00:22:48;;;;;;;;;;;;;;;14.22;100.00;101292.22;5059254;28;19916;-78
2022/06/24 00:25:23;;;;;;;;;;;;;;;14.09;100.00;101286.81;5059143;28;19916;-79
2022/06/24 00:28:02;;;;;;;;;;;;;;;14.01;100.00;101284.34;5076550;28;19912;-78
2022/06/24 00:30:28;;;;;;;;;;;;;;;13.91;100.00;101284.78;5054245;28;19923;-78
2022/06/24 00:33:07;;;;;;;;;;;;;;;13.87;100.00;101286.22;5077440;28;20276;-78
2022/06/24 00:35:36;;;;;;;;;;;;;;;13.85;100.00;101283.72;5076100;28;20318;-80
2022/06/24 00:38:01;;;;;;;;;;;;;;;13.81;100.00;101278.94;5075792;28;19908;-81
2022/06/24 00:40:27;;;;;;;;;;;;;;;13.82;100.00;101276.03;5036881;28;19974;-80
2022/06/24 00:42:53;;;;;;;;;;;;;;;13.87;100.00;101278.09;5056526;28;19923;-80
2022/06/24 00:45:24;;;;;;;;;;;;;;;13.89;100.00;101276.03;5057646;28;19909;-80
2022/06/24 00:47:50;;;;;;;;;;;;;;;13.92;100.00;101280.19;5086409;28;20443;-81
2022/06/24 00:50:24;;;;;;;;;;;;;;;13.93;100.00;101276.44;5077207;28;19912;-80
2022/06/24 00:53:00;;;;;;;;;;;;;;;13.93;100.00;101271.84;5095617;28;19969;-79
2022/06/24 00:55:25;;;;;;;;;;;;;;;13.93;100.00;101269.13;5091610;28;19915;-80
2022/06/24 00:57:51;;;;;;;;;;;;;;;13.91;100.00;101275.78;5078107;28;19912;-80
2022/06/24 01:00:16;;;;;;;;;;;;;;;13.83;100.00;101266.84;5076156;28;19908;-80
2022/06/24 01:02:42;;;;;;;;;;;;;;;13.77;100.00;101266.88;5075153;28;19908;-81
2022/06/24 01:05:08;;;;;;;;;;;;;;;13.74;100.00;101272.69;5095441;28;20320;-81
2022/06/24 01:07:37;;;;;;;;;;;;;;;13.68;100.00;101276.25;5075686;28;19954;-80
2022/06/24 01:10:03;;;;;;;;;;;;;;;13.60;100.00;101269.97;5094878;28;19976;-80
2022/06/24 01:12:30;;;;;;;;;;;;;;;13.55;100.00;101274.38;5077357;28;19908;-80
2022/06/24 01:14:55;;;;;;;;;;;;;;;13.47;100.00;101275.38;5093892;28;19908;-79
2022/06/24 01:17:20;;;;;;;;;;;;;;;13.44;100.00;101269.56;5077952;28;19912;-81
2022/06/24 01:19:45;;;;;;;;;;;;;;;13.39;100.00;101276.44;5094950;28;19977;-79
2022/06/24 01:22:11;;;;;;;;;;;;;;;13.36;100.00;101274.13;5098077;28;19924;-80
2022/06/24 01:24:36;;;;;;;;;;;;;;;13.34;100.00;101272.66;5091828;28;20087;-80
2022/06/24 01:27:02;;;;;;;;;;;;;;;13.29;100.00;101267.88;5074757;28;19912;-80
2022/06/24 01:29:27;;;;;;;;;;;;;;;13.25;100.00;101271.22;5075543;28;19912;-80
2022/06/24 01:31:53;;;;;;;;;;;;;;;13.22;100.00;101275.13;5094939;28;19916;-81
2022/06/24 01:34:23;;;;;;;;;;;;;;;13.19;100.00;101280.13;5094538;28;19912;-80
2022/06/24 01:36:48;;;;;;;;;;;;;;;13.16;100.00;101275.94;5077612;28;19947;-81
2022/06/24 01:39:13;;;;;;;;;;;;;;;13.11;100.00;101273.88;5092331;28;19912;-80
2022/06/24 01:41:45;;;;;;;;;;;;;;;13.07;100.00;101282.56;5077371;28;20254;-79
2022/06/24 01:44:10;;;;;;;;;;;;;;;13.05;100.00;101277.38;5075849;28;19957;-80
2022/06/24 01:46:36;;;;;;;;;;;;;;;13.03;100.00;101281.31;5092024;28;19916;-81
2022/06/24 01:49:01;;;;;;;;;;;;;;;13.00;100.00;101281.72;5087958;28;20288;-80
2022/06/24 01:51:27;;;;;;;;;;;;;;;12.94;100.00;101280.66;5094721;28;19912;-79
2022/06/24 01:53:53;;;;;;;;;;;;;;;12.85;100.00;101284.59;5093178;28;20028;-80
2022/06/24 01:56:19;;;;;;;;;;;;;;;12.80;100.00;101281.66;5095283;28;19914;-78
2022/06/24 01:58:44;;;;;;;;;;;;;;;12.77;100.00;101292.84;5076951;28;20317;-80
2022/06/24 02:01:10;;;;;;;;;;;;;;;12.73;100.00;101294.28;5076577;28;19908;-78
2022/06/24 02:03:38;;;;;;;;;;;;;;;12.70;100.00;101285.56;5077427;28;19912;-78
2022/06/24 02:06:04;;;;;;;;;;;;;;;12.67;100.00;101282.44;5072391;28;19921;-79
2022/06/24 02:08:29;;;;;;;;;;;;;;;12.56;100.00;101280.31;5095533;28;20004;-79
2022/06/24 02:13:39;;;;;;;;;;;;;;;12.39;100.00;101274.41;5089480;28;19922;-79
2022/06/24 02:16:04;;;;;;;;;;;;;;;12.35;100.00;101275.81;5076705;28;19908;-78
2022/06/24 02:18:31;;;;;;;;;;;;;;;12.31;100.00;101275.38;5092550;28;19944;-79
2022/06/24 02:20:57;;;;;;;;;;;;;;;12.26;100.00;101268.94;5094592;28;19961;-78
2022/06/24 02:23:24;;;;;;;;;;;;;;;12.22;100.00;101274.75;5093483;28;19920;-79
2022/06/24 02:25:50;;;;;;;;;;;;;;;12.23;100.00;101267.47;5094859;28;19912;-79
2022/06/24 02:28:15;;;;;;;;;;;;;;;12.21;100.00;101270.34;5076912;28;19961;-79
2022/06/24 02:30:42;;;;;;;;;;;;;;;12.23;100.00;101265.59;5075099;28;19924;-79
2022/06/24 02:33:07;;;;;;;;;;;;;;;12.34;100.00;101277.69;5095182;28;19947;-79
2022/06/24 02:35:33;;;;;;;;;;;;;;;12.69;100.00;101283.06;5097743;28;19908;-79
2022/06/24 02:37:59;;;;;;;;;;;;;;;13.15;100.00;101274.28;5095176;28;19923;-79
2022/06/24 02:43:17;;;;;;;;;;;;;;;14.30;100.00;101281.16;5095895;28;19932;-79
2022/06/24 02:45:43;;;;;;;;;;;;;;;14.56;100.00;101268.59;5081394;28;19908;-79
2022/06/24 02:48:08;;;;;;;;;;;;;;;15.00;100.00;101265.09;5097501;28;19931;-78
2022/06/24 02:50:41;;;;;;;;;;;;;;;15.34;100.00;101271.13;5098424;28;19916;-79
2022/06/24 02:53:06;;;;;;;;;;;;;;;15.68;100.00;101264.41;5095635;28;19919;-78
2022/06/24 02:55:31;;;;;;;;;;;;;;;15.92;100.00;101257.28;5098104;28;19927;-79
2022/06/24 02:57:57;;;;;;;;;;;;;;;16.01;100.00;101257.03;5096294;28;19912;-78
2022/06/24 03:00:22;;;;;;;;;;;;;;;16.24;100.00;101257.19;5098198;28;19908;-78
2022/06/24 03:02:47;;;;;;;;;;;;;;;16.55;100.00;101258.91;5097485;28;19981;-79
2022/06/24 03:05:12;;;;;;;;;;;;;;;16.91;100.00;101251.81;5097132;28;19920;-78
2022/06/24 03:07:56;;;;;;;;;;;;;;;17.28;100.00;101260.66;5081884;28;19973;-79
2022/06/24 03:10:21;;;;;;;;;;;;;;;17.71;97.92;101264.19;5078007;28;19912;-79
2022/06/24 03:12:46;;;;;;;;;;;;;;;17.88;96.41;101267.06;5099467;28;19976;-79
2022/06/24 03:15:12;;;;;;;;;;;;;;;18.06;95.79;101261.50;5080140;28;19923;-78
2022/06/24 03:17:37;;;;;;;;;;;;;;;18.35;94.44;101262.44;5080001;28;19919;-78
2022/06/24 03:20:06;;;;;;;;;;;;;;;18.64;93.03;101255.13;5094208;28;20306;-79
2022/06/24 03:22:32;;;;;;;;;;;;;;;18.98;92.04;101256.09;5082926;28;19930;-78
2022/06/24 03:24:57;;;;;;;;;;;;;;;19.30;90.49;101247.38;5085438;28;19916;-79
2022/06/24 03:27:22;;;;;;;;;;;;;;;19.62;88.64;101247.66;5097324;28;19993;-79
2022/06/24 03:29:48;;;;;;;;;;;;;;;19.81;87.91;101237.34;5079422;28;20006;-78
2022/06/24 03:32:13;;;;;;;;;;;;;;;20.02;86.89;101238.44;5075042;28;19912;-78
2022/06/24 03:34:39;;;;;;;;;;;;;;;20.27;85.90;101242.63;5096722;28;19912;-79
2022/06/24 03:37:04;;;;;;;;;;;;;;;20.57;83.95;101243.03;5078908;28;19908;-78
2022/06/24 03:39:29;;;;;;;;;;;;;;;20.94;82.63;101242.34;5078991;28;20326;-78
2022/06/24 03:41:55;;;;;;;;;;;;;;;21.25;81.68;101237.19;5079471;28;19908;-78
2022/06/24 03:44:20;;;;;;;;;;;;;;;21.53;79.52;101245.13;5089537;28;19995;-78
2022/06/24 03:46:45;;;;;;;;;;;;;;;21.75;78.88;101238.69;5076917;28;19915;-79
2022/06/24 03:49:11;;;;;;;;;;;;;;;21.86;79.03;101239.63;5096399;28;20257;-79
2022/06/24 03:51:36;;;;;;;;;;;;;;;21.87;79.40;101239.34;5076742;28;19961;-79
2022/06/24 03:54:01;;;;;;;;;;;;;;;22.10;77.96;101238.13;5095810;28;19926;-78
2022/06/24 03:56:27;;;;;;;;;;;;;;;22.28;76.99;101236.84;5075879;28;21889;-78
2022/06/24 03:58:52;;;;;;;;;;;;;;;22.42;78.35;101239.97;5074637;28;20032;-78
2022/06/24 04:01:17;;;;;;;;;;;;;;;22.60;81.83;101238.66;5096717;28;19908;-79
2022/06/24 04:03:43;;;;;;;;;;;;;;;22.73;77.62;101240.88;5094478;28;19923;-78
2022/06/24 04:06:08;;;;;;;;;;;;;;;22.83;78.70;101243.66;5097053;28;19947;-79
2022/06/24 04:08:34;;;;;;;;;;;;;;;23.02;78.88;101241.25;5078412;28;19947;-78
2022/06/24 04:11:07;;;;;;;;;;;;;;;23.09;78.33;101236.31;5097270;28;19946;-78
2022/06/24 04:13:32;;;;;;;;;;;;;;;23.14;79.57;101243.72;5091735;28;19912;-79
2022/06/24 04:15:57;;;;;;;;;;;;;;;23.38;76.48;101233.88;5074390;28;19924;-79
2022/06/24 04:18:22;;;;;;;;;;;;;;;23.65;76.16;101235.53;5094845;28;19920;-78
2022/06/24 04:20:48;;;;;;;;;;;;;;;23.94;76.15;101235.78;5084612;28;19912;-78
2022/06/24 04:23:13;;;;;;;;;;;;;;;24.04;75.56;101244.00;5094465;28;19916;-78
2022/06/24 04:25:38;;;;;;;;;;;;;;;24.14;75.45;101241.22;5074619;28;19916;-79
2022/06/24 04:28:04;;;;;;;;;;;;;;;24.29;77.11;101240.34;5095215;28;20313;-79
2022/06/24 04:30:29;;;;;;;;;;;;;;;24.24;75.51;101242.28;5075619;28;19916;-79
2022/06/24 04:32:54;;;;;;;;;;;;;;;24.19;74.48;101239.56;5073158;28;20004;-78
2022/06/24 04:35:29;;;;;;;;;;;;;;;24.23;76.11;101238.72;5073344;28;19912;-79
2022/06/24 04:37:55;;;;;;;;;;;;;;;24.27;75.52;101242.56;5090132;28;19919;-77
2022/06/24 04:40:20;;;;;;;;;;;;;;;24.36;74.31;101238.13;5093556;28;19911;-78
2022/06/24 04:42:46;;;;;;;;;;;;;;;24.49;75.13;101244.97;5093092;28;19926;-79
2022/06/24 04:45:11;;;;;;;;;;;;;;;24.51;74.65;101242.78;5093302;28;20501;-78
2022/06/24 04:47:37;;;;;;;;;;;;;;;24.47;75.72;101236.19;5094271;28;19916;-79
2022/06/24 04:50:02;;;;;;;;;;;;;;;24.42;77.46;101246.38;5093030;28;19907;-80
2022/06/24 04:52:28;;;;;;;;;;;;;;;24.47;73.15;101244.44;5091853;28;20392;-79
2022/06/24 04:54:53;;;;;;;;;;;;;;;24.57;74.24;101246.34;5093786;28;19908;-79
2022/06/24 04:57:18;;;;;;;;;;;;;;;24.59;78.01;101247.69;5072392;28;20254;-81
2022/06/24 04:59:44;;;;;;;;;;;;;;;24.51;75.88;101241.97;5074463;28;19959;-81
2022/06/24 05:02:09;;;;;;;;;;;;;;;24.55;77.59;101238.34;5086301;28;19924;-80
2022/06/24 05:04:37;;;;;;;;;;;;;;;24.33;79.73;101235.91;5091891;28;19969;-80
2022/06/24 05:07:03;;;;;;;;;;;;;;;24.18;78.52;101233.25;5088548;28;20381;-80
2022/06/24 05:09:28;;;;;;;;;;;;;;;24.34;77.89;101245.84;5067503;28;19916;-78
2022/06/24 05:11:53;;;;;;;;;;;;;;;24.24;76.16;101218.38;5086875;28;19938;-78
2022/06/24 05:14:19;;;;;;;;;;;;;;;24.28;78.40;101241.47;5094378;28;20309;-78
2022/06/24 05:16:44;;;;;;;;;;;;;;;24.14;79.83;101245.91;5066362;28;19923;-79
2022/06/24 05:19:10;;;;;;;;;;;;;;;24.11;80.68;101243.72;5057386;28;19920;-78
2022/06/24 05:21:35;;;;;;;;;;;;;;;24.15;79.51;101244.81;5074747;28;19989;-79
2022/06/24 05:24:01;;;;;;;;;;;;;;;24.12;79.74;101239.84;5090215;28;19919;-79
2022/06/24 05:26:26;;;;;;;;;;;;;;;24.27;79.63;101239.81;5094639;28;20041;-78
2022/06/24 05:28:51;;;;;;;;;;;;;;;24.28;82.11;101240.66;5092774;28;20642;-79
2022/06/24 05:31:16;;;;;;;;;;;;;;;24.25;83.82;101244.78;5078830;28;19969;-78
2022/06/24 05:33:41;;;;;;;;;;;;;;;24.27;83.87;101238.97;5089828;28;19916;-79
2022/06/24 05:36:07;;;;;;;;;;;;;;;24.16;84.41;101240.94;5090572;28;19924;-78
2022/06/24 05:38:33;;;;;;;;;;;;;;;23.96;79.92;101239.06;5092825;28;19918;-79
2022/06/24 05:40:59;;;;;;;;;;;;;;;24.03;80.39;101239.59;5102787;28;20320;-79
2022/06/24 05:43:24;;;;;;;;;;;;;;;24.04;79.46;101237.66;5076896;28;19916;-79
2022/06/24 05:45:49;;;;;;;;;;;;;;;24.10;79.57;101240.13;5092172;28;20376;-78
2022/06/24 05:48:15;;;;;;;;;;;;;;;24.23;77.58;101244.22;5088840;28;19995;-79
2022/06/24 05:50:40;;;;;;;;;;;;;;;24.25;78.97;101233.78;5075379;28;19923;-78
2022/06/24 05:55:50;;;;;;;;;;;;;;;24.12;76.31;101234.38;5088326;28;19927;-79
2022/06/24 05:58:16;;;;;;;;;;;;;;;24.06;78.55;101232.72;5091741;28;19908;-81
2022/06/24 06:00:41;;;;;;;;;;;;;;;24.24;79.56;101231.28;5075940;28;20242;-81
2022/06/24 06:03:06;;;;;;;;;;;;;;;24.36;75.78;101237.28;5093636;28;19972;-79
2022/06/24 06:05:33;;;;;;;;;;;;;;;24.45;75.71;101240.31;5076030;28;19930;-81
2022/06/24 06:07:58;;;;;;;;;;;;;;;24.44;76.76;101238.69;5095791;28;19908;-79
2022/06/24 06:10:26;;;;;;;;;;;;;;;24.55;73.81;101234.78;5077895;28;20013;-80
2022/06/24 06:12:51;;;;;;;;;;;;;;;24.69;75.06;101232.22;5096611;28;19912;-79
2022/06/24 06:15:16;;;;;;;;;;;;;;;24.81;73.22;101230.78;5094635;28;20356;-80
2022/06/24 06:17:41;;;;;;;;;;;;;;;24.81;71.27;101229.97;5078508;28;19999;-80
2022/06/24 06:20:07;;;;;;;;;;;;;;;24.69;73.27;101222.03;5094666;28;19927;-79
2022/06/24 06:22:32;;;;;;;;;;;;;;;24.74;72.73;101224.78;5074488;28;19987;-80
2022/06/24 06:24:57;;;;;;;;;;;;;;;24.81;71.28;101222.53;5092395;28;19912;-79
2022/06/24 06:27:23;;;;;;;;;;;;;;;24.87;71.13;101219.72;5095690;28;19918;-79
2022/06/24 06:29:49;;;;;;;;;;;;;;;24.77;66.80;101220.66;5094652;28;19947;-79
2022/06/24 06:32:14;;;;;;;;;;;;;;;24.96;67.23;101218.03;5095453;28;19923;-79
2022/06/24 06:34:39;;;;;;;;;;;;;;;25.08;70.80;101222.06;5098015;28;19911;-81
2022/06/24 06:37:05;;;;;;;;;;;;;;;25.03;63.32;101221.28;5073989;28;19916;-81
2022/06/24 06:39:30;;;;;;;;;;;;;;;25.22;67.64;101221.44;5078488;28;19951;-81
2022/06/24 06:41:56;;;;;;;;;;;;;;;25.21;63.25;101217.88;5079397;28;19912;-80
2022/06/24 06:44:21;;;;;;;;;;;;;;;25.25;65.97;101220.88;5093746;28;19912;-80
2022/06/24 06:46:46;;;;;;;;;;;;;;;25.36;64.21;101222.44;5095844;28;20018;-80
2022/06/24 06:49:11;;;;;;;;;;;;;;;25.32;62.94;101180.03;5094291;28;20014;-81
2022/06/24 06:51:37;;;;;;;;;;;;;;;25.52;65.49;101212.91;5093583;28;19916;-81
2022/06/24 06:54:04;;;;;;;;;;;;;;;25.55;66.80;101203.25;5077740;28;19923;-80
2022/06/24 06:56:29;;;;;;;;;;;;;;;25.60;65.23;101203.22;5093510;28;19912;-81
2022/06/24 06:58:54;;;;;;;;;;;;;;;25.64;66.54;101198.78;5093880;28;20353;-80
2022/06/24 07:01:19;;;;;;;;;;;;;;;25.73;64.38;101199.78;5076487;28;19977;-80
2022/06/24 07:03:45;;;;;;;;;;;;;;;25.63;63.92;101194.38;5097509;28;19912;-80
2022/06/24 07:06:10;;;;;;;;;;;;;;;25.54;61.13;101193.34;5077665;28;19976;-80
2022/06/24 07:08:35;;;;;;;;;;;;;;;25.69;56.82;101197.88;5076147;28;20264;-80
2022/06/24 07:11:03;;;;;;;;;;;;;;;25.72;62.61;101189.84;5096220;28;19920;-81
2022/06/24 07:13:29;;;;;;;;;;;;;;;25.50;61.74;101195.06;5076625;28;19916;-81
2022/06/24 07:15:54;;;;;;;;;;;;;;;25.28;60.83;101193.56;5093601;28;19972;-81
2022/06/24 07:18:19;;;;;;;;;;;;;;;25.41;59.60;101188.53;5076519;28;19918;-80
2022/06/24 07:20:44;;;;;;;;;;;;;;;25.12;54.17;101194.81;5093448;28;19923;-81
2022/06/24 07:23:10;;;;;;;;;;;;;;;25.11;58.94;101195.06;5092934;28;20246;-80
2022/06/24 07:25:35;;;;;;;;;;;;;;;25.25;55.14;101191.41;5078865;28;19913;-80
2022/06/24 07:28:00;;;;;;;;;;;;;;;25.11;56.12;101189.56;5075855;28;19908;-80
2022/06/24 07:30:26;;;;;;;;;;;;;;;24.88;48.38;101178.16;5073518;28;19912;-80
2022/06/24 07:32:51;;;;;;;;;;;;;;;25.06;55.82;101182.16;5097292;28;20015;-80
2022/06/24 07:35:17;;;;;;;;;;;;;;;25.35;56.11;101176.72;5076066;28;20010;-81
2022/06/24 07:37:45;;;;;;;;;;;;;;;25.12;56.09;101175.53;5092546;28;19919;-80
2022/06/24 07:40:11;;;;;;;;;;;;;;;25.13;55.58;101170.84;5090826;28;19908;-80
2022/06/24 07:42:36;;;;;;;;;;;;;;;25.21;56.45;101173.81;5093327;28;19958;-81
2022/06/24 07:45:02;;;;;;;;;;;;;;;25.14;52.30;101176.06;5093418;28;19963;-81
2022/06/24 07:47:27;;;;;;;;;;;;;;;25.32;56.59;101171.78;5092404;28;19927;-80
2022/06/24 07:49:52;;;;;;;;;;;;;;;25.21;56.08;101157.28;5092167;28;19955;-80
2022/06/24 07:52:18;;;;;;;;;;;;;;;24.97;56.24;101126.91;5090997;28;20012;-81
2022/06/24 07:54:43;;;;;;;;;;;;;;;25.24;56.00;101169.66;5091868;28;19962;-79
2022/06/24 07:57:08;;;;;;;;;;;;;;;25.14;57.55;101162.31;5090200;28;19908;-83
2022/06/24 07:59:37;;;;;;;;;;;;;;;25.37;56.47;101160.72;5071322;28;19926;-81
2022/06/24 08:02:03;;;;;;;;;;;;;;;24.76;53.17;101159.25;5073806;28;20269;-83
2022/06/24 08:04:29;;;;;;;;;;;;;;;25.06;57.64;101160.94;5101433;28;19916;-82
2022/06/24 08:06:54;;;;;;;;;;;;;;;25.38;56.21;101158.78;5101186;28;19912;-80
2022/06/24 08:09:21;;;;;;;;;;;;;;;25.63;57.56;101155.78;5096185;28;19912;-81
2022/06/24 08:11:46;;;;;;;;;;;;;;;25.80;57.12;101163.63;5081139;28;20254;-82
2022/06/24 08:14:13;;;;;;;;;;;;;;;25.87;57.82;101164.09;5096494;28;19922;-82
2022/06/24 08:16:39;;;;;;;;;;;;;;;25.93;55.93;101165.69;5100932;28;19892;-83
2022/06/24 08:19:04;;;;;;;;;;;;;;;26.02;57.70;101165.84;5085250;28;19983;-84
2022/06/24 08:21:29;;;;;;;;;;;;;;;26.09;56.59;101168.25;5087311;28;19934;-83
2022/06/24 08:23:55;;;;;;;;;;;;;;;25.85;53.53;101163.56;5095893;28;19919;-81
2022/06/24 08:26:20;;;;;;;;;;;;;;;25.90;56.06;101169.03;5083862;28;20021;-82
2022/06/24 08:28:45;;;;;;;;;;;;;;;25.90;56.59;101162.69;5087795;28;19919;-81
2022/06/24 08:31:11;;;;;;;;;;;;;;;25.67;52.14;101172.56;5097380;28;19901;-84
2022/06/24 08:33:37;;;;;;;;;;;;;;;25.69;55.72;101160.13;5086816;28;19965;-81
2022/06/24 08:36:04;;;;;;;;;;;;;;;25.72;56.25;101162.28;5093143;28;19915;-82
2022/06/24 08:38:29;;;;;;;;;;;;;;;25.37;55.40;101163.50;5084974;28;19908;-82
2022/06/24 08:40:55;;;;;;;;;;;;;;;25.53;56.68;101155.91;5082137;28;19908;-81
2022/06/24 08:43:21;;;;;;;;;;;;;;;25.15;53.75;101150.19;5096454;28;19908;-81
2022/06/24 08:45:48;;;;;;;;;;;;;;;25.41;56.22;101152.72;5085134;28;19916;-83
2022/06/24 08:48:13;;;;;;;;;;;;;;;25.46;55.41;101150.72;5107149;28;19927;-82
2022/06/24 08:55:44;;;;;;;;;;;;;;;26.10;56.33;101145.91;4972716;28;19922;-81
2022/06/24 08:58:11;;;;;;;;;;;;;;;26.16;56.17;101152.19;4967268;28;20001;-80
2022/06/24 09:00:37;;;;;;;;;;;;;;;26.22;56.24;101151.81;4963662;28;19910;-81
2022/06/24 09:03:05;;;;;;;;;;;;;;;26.32;58.01;101152.78;4960999;29;19965;-82
2022/06/24 09:05:31;;;;;;;;;;;;;;;26.39;57.87;101150.47;4962981;29;19969;-79
2022/06/24 09:08:02;;;;;;;;;;;;;;;26.46;58.63;101148.19;4962072;28;19914;-81
2022/06/24 09:10:28;;;;;;;;;;;;;;;26.46;57.35;101145.44;4964781;28;19922;-83
2022/06/24 09:12:54;;;;;;;;;;;;;;;26.55;57.37;101140.06;4966729;29;20423;-82
2022/06/24 09:15:20;;;;;;;;;;;;;;;26.48;58.26;101140.44;4963571;29;19921;-81
2022/06/24 09:17:45;;;;;;;;;;;;;;;26.53;58.98;101134.88;4961051;28;19914;-81
2022/06/24 09:20:12;;;;;;;;;;;;;;;26.51;58.38;101120.53;4960111;28;19965;-81
2022/06/24 09:22:38;;;;;;;;;;;;;;;26.57;59.09;101130.38;4956924;29;19918;-79
2022/06/24 09:25:04;;;;;;;;;;;;;;;26.51;58.33;101120.53;4961389;28;19978;-81
2022/06/24 09:27:30;;;;;;;;;;;;;;;26.58;59.94;101111.88;4958742;29;19969;-78
2022/06/24 09:29:55;;;;;;;;;;;;;;;26.58;59.83;101106.34;4960899;28;19918;-81
2022/06/24 09:32:20;;;;;;;;;;;;;;;26.57;59.94;101111.06;4944572;28;19969;-80
2022/06/24 09:34:58;;;;;;;;;;;;;;;26.68;60.20;101109.78;4979062;28;19909;-81
2022/06/24 09:37:40;;;;;;;;;;;;;;;26.75;59.34;101112.16;4977234;28;19926;-81
2022/06/24 09:40:18;;;;;;;;;;;;;;;26.74;59.69;101093.13;4977645;28;19906;-80
2022/06/24 09:42:57;;;;;;;;;;;;;;;26.82;58.71;101104.34;4976184;28;19902;-80
2022/06/24 09:45:23;;;;;;;;;;;;;;;26.93;59.61;101107.75;4982835;28;19918;-80
2022/06/24 09:47:49;;;;;;;;;;;;;;;26.94;59.97;101101.09;4968174;28;19918;-80
2022/06/24 09:50:15;;;;;;;;;;;;;;;26.89;58.76;101101.19;4962168;28;19992;-81
2022/06/24 09:52:41;;;;;;;;;;;;;;;26.98;60.63;101093.00;4964891;28;19911;-81
2022/06/24 09:55:06;;;;;;;;;;;;;;;26.97;59.41;101096.91;4967959;28;19929;-80
2022/06/24 09:57:32;;;;;;;;;;;;;;;27.00;60.92;101083.31;4963576;28;19914;-80
2022/06/24 10:02:43;;;;;;;;;;;;;;;26.89;60.20;101076.34;4944808;29;20317;-79
2022/06/24 10:05:09;;;;;;;;;;;;;;;27.03;59.27;101073.59;4965576;28;20292;-79
2022/06/24 10:07:36;;;;;;;;;;;;;;;27.13;59.66;101071.50;4969340;28;19926;-78
2022/06/24 10:10:03;;;;;;;;;;;;;;;27.15;59.69;101066.50;4961081;28;19910;-79
2022/06/24 10:12:29;;;;;;;;;;;;;;;27.12;59.93;101060.75;4962367;28;19918;-79
2022/06/24 10:14:56;;;;;;;;;;;;;;;27.14;60.43;101067.59;4961800;28;19910;-80
2022/06/24 10:17:22;;;;;;;;;;;;;;;27.16;55.21;101059.03;4960289;28;19910;-79
2022/06/24 10:19:48;;;;;;;;;;;;;;;26.44;55.27;101059.34;4961465;28;19914;-80
2022/06/24 10:22:54;;;;;;;;;;;;;;;26.29;55.13;101049.38;4960081;29;20229;-79
2022/06/24 10:25:38;;;;;;;;;;;;;;;26.54;54.94;101052.88;4918833;29;20001;-78
2022/06/24 10:28:04;;;;;;;;;;;;;;;26.31;59.13;101049.88;4958996;29;19910;-79
2022/06/24 10:30:39;;;;;;;;;;;;;;;26.16;62.32;101048.19;4960190;29;20360;-78
2022/06/24 10:33:14;;;;;;;;;;;;;;;26.02;60.40;101041.75;4975658;28;19910;-78
2022/06/24 10:35:58;;;;;;;;;;;;;;;25.69;60.91;101049.88;4960393;29;19914;-80
2022/06/24 10:38:24;;;;;;;;;;;;;;;25.44;62.88;101048.25;4974514;28;19919;-78
2022/06/24 10:40:50;;;;;;;;;;;;;;;24.99;65.77;101050.34;4965267;28;19910;-80
2022/06/24 10:43:32;;;;;;;;;;;;;;;24.52;67.64;101038.06;4960769;28;19914;-79
2022/06/24 10:46:09;;;;;;;;;;;;;;;24.17;72.75;101052.03;4972548;28;19910;-79
2022/06/24 10:48:43;;;;;;;;;;;;;;;24.00;73.30;101046.91;4960034;28;19936;-78
2022/06/24 10:51:15;;;;;;;;;;;;;;;23.82;75.22;101043.72;4958683;28;19968;-79
2022/06/24 10:53:59;;;;;;;;;;;;;;;23.79;77.74;101041.53;4959368;28;19965;-78
2022/06/24 10:56:38;;;;;;;;;;;;;;;23.85;76.67;101050.56;4957835;28;19910;-79
2022/06/24 10:59:04;;;;;;;;;;;;;;;24.01;74.86;101032.09;4953242;29;19920;-77
2022/06/24 11:01:29;;;;;;;;;;;;;;;24.07;72.43;101036.41;4957495;28;19910;-78
2022/06/24 11:03:55;;;;;;;;;;;;;;;24.19;72.50;101041.59;4962891;28;20368;-78
2022/06/24 11:06:20;;;;;;;;;;;;;;;24.49;70.70;101038.66;4940839;29;19961;-78
2022/06/24 11:08:46;;;;;;;;;;;;;;;24.52;68.06;101026.25;4956346;29;20060;-78
2022/06/24 11:11:24;;;;;;;;;;;;;;;24.69;66.25;101037.66;4941582;29;19918;-78
2022/06/24 11:13:50;;;;;;;;;;;;;;;24.51;67.56;101030.94;4974140;28;19919;-78
2022/06/24 11:16:16;;;;;;;;;;;;;;;24.54;69.93;101030.38;4958484;28;19918;-78
2022/06/24 11:18:43;;;;;;;;;;;;;;;24.62;70.64;101015.16;4957030;28;19914;-78
2022/06/24 11:21:09;;;;;;;;;;;;;;;24.48;70.27;101017.75;4956845;28;20332;-78
2022/06/24 11:23:35;;;;;;;;;;;;;;;24.23;75.68;101024.22;4974120;28;19914;-79
2022/06/24 11:26:00;;;;;;;;;;;;;;;24.20;74.95;101016.53;4959162;28;19918;-79
2022/06/24 11:28:31;;;;;;;;;;;;;;;24.07;75.28;101011.69;4958383;28;19910;-79
2022/06/24 11:31:12;;;;;;;;;;;;;;;24.17;75.05;101010.78;4972031;28;19914;-78
2022/06/24 11:33:37;;;;;;;;;;;;;;;24.34;73.42;101000.25;4971848;28;19914;-81
2022/06/24 11:36:03;;;;;;;;;;;;;;;24.29;73.33;101003.84;4959530;29;19921;-78
2022/06/24 11:38:29;;;;;;;;;;;;;;;24.56;72.41;100995.13;4957859;28;19969;-78
2022/06/24 11:40:54;;;;;;;;;;;;;;;24.45;71.44;100993.56;4958754;28;19910;-79
2022/06/24 11:43:20;;;;;;;;;;;;;;;24.24;71.36;100981.03;4941173;29;19914;-78
2022/06/24 11:45:48;;;;;;;;;;;;;;;24.16;72.65;100987.97;4958783;29;19973;-78
2022/06/24 11:48:21;;;;;;;;;;;;;;;23.97;73.51;100987.81;4957873;28;19921;-80
2022/06/24 11:50:47;;;;;;;;;;;;;;;23.72;76.48;100991.56;4958596;29;19920;-81
2022/06/24 11:53:12;;;;;;;;;;;;;;;23.78;77.02;100987.69;4970429;28;19902;-79
2022/06/24 11:55:39;;;;;;;;;;;;;;;23.96;74.79;100980.69;4972442;28;19926;-77
2022/06/24 11:58:05;;;;;;;;;;;;;;;23.98;74.40;100980.44;4995449;28;19918;-79
2022/06/24 12:00:32;;;;;;;;;;;;;;;23.90;75.82;100966.16;4980097;28;19921;-80
2022/06/24 12:02:58;;;;;;;;;;;;;;;23.75;78.31;100971.75;4964019;28;19919;-79
2022/06/24 12:05:26;;;;;;;;;;;;;;;23.65;76.15;100980.03;4959101;29;19925;-81
2022/06/24 12:07:52;;;;;;;;;;;;;;;23.51;80.59;100977.06;4977423;28;19929;-81
2022/06/24 12:10:17;;;;;;;;;;;;;;;;;;4956710;29;20357;-80
2022/06/24 12:13:06;;;;;;;;;;;;;;;23.05;90.03;100977.22;4972737;28;19910;-81
2022/06/24 12:15:31;;;;;;;;;;;;;;;22.93;91.68;100969.28;4943457;28;19911;-78
2022/06/24 12:17:57;;;;;;;;;;;;;;;22.81;91.66;100965.97;4973511;28;19929;-78
2022/06/24 12:20:26;;;;;;;;;;;;;;;23.05;90.54;100959.94;4958037;28;19994;-78
2022/06/24 12:23:23;;;;;;;;;;;;;;;23.26;88.44;100967.00;4957100;29;19934;-78
2022/06/24 12:25:50;;;;;;;;;;;;;;;23.30;87.09;100962.59;4925115;28;19919;-78
2022/06/24 12:28:17;;;;;;;;;;;;;;;23.23;90.28;100951.09;4958008;29;20368;-78
2022/06/24 12:30:44;;;;;;;;;;;;;;;23.32;89.60;100954.91;4957981;28;19976;-78
2022/06/24 12:33:11;;;;;;;;;;;;;;;23.39;85.62;100949.91;4972347;28;19968;-79
2022/06/24 12:35:38;;;;;;;;;;;;;;;23.59;85.67;100938.00;4957801;29;19912;-79
2022/06/24 12:38:12;;;;;;;;;;;;;;;23.59;86.42;100931.72;4955772;28;20294;-79
2022/06/24 12:40:39;;;;;;;;;;;;;;;23.53;86.57;100943.81;4944567;29;19918;-79
2022/06/24 12:43:08;;;;;;;;;;;;;;;23.54;87.04;100939.97;4957166;28;19914;-79
2022/06/24 12:45:34;;;;;;;;;;;;;;;23.71;84.17;100932.22;4958245;28;19918;-79
2022/06/24 12:50:43;;;;;;;;;;;;;;;24.06;78.64;100933.91;4956121;29;19977;-80
2022/06/24 12:53:10;;;;;;;;;;;;;;;24.06;80.36;100924.84;4957025;28;19926;-79